sensor_id;sensor_type;location;lat;lon;timestamp;P1;durP1;ratioP1;P2;durP2;ratioP2
12703;SDS011;6416;52.182;7.650;2022-09-28T00:02:25;5.80;;;5.20;;
12703;SDS011;6416;52.182;7.650;2022-09-28T00:04:50;5.47;;;4.97;;
12703;SDS011;6416;52.182;7.650;2022-09-28T00:07:16;6.00;;;5.43;;
12703;SDS011;6416;52.182;7.650;2022-09-28T00:09:41;5.57;;;5.00;;
12703;SDS011;6416;52.182;7.650;2022-09-28T00:12:07;5.83;;;5.33;;
12703;SDS011;6416;52.182;7.650;2022-09-28T00:14:32;6.73;;;6.13;;
12703;SDS011;6416;52.182;7.650;2022-09-28T00:16:58;6.03;;;5.43;;
12703;SDS011;6416;52.182;7.650;2022-09-28T00:19:23;6.73;;;6.03;;
12703;SDS011;6416;52.182;7.650;2022-09-28T00:21:48;6.67;;;6.07;;
12703;SDS011;6416;52.182;7.650;2022-09-28T00:24:14;6.80;;;6.10;;
12703;SDS011;6416;52.182;7.650;2022-09-28T00:29:25;6.20;;;5.70;;
12703;SDS011;6416;52.182;7.650;2022-09-28T00:31:52;6.77;;;6.17;;
12703;SDS011;6416;52.182;7.650;2022-09-28T00:34:20;6.67;;;6.07;;
12703;SDS011;6416;52.182;7.650;2022-09-28T00:36:45;6.67;;;6.07;;
12703;SDS011;6416;52.182;7.650;2022-09-28T00:39:12;5.97;;;5.47;;
12703;SDS011;6416;52.182;7.650;2022-09-28T00:41:39;6.93;;;5.83;;
12703;SDS011;6416;52.182;7.650;2022-09-28T00:46:59;7.63;;;6.07;;
12703;SDS011;6416;52.182;7.650;2022-09-28T00:49:42;6.37;;;5.53;;
12703;SDS011;6416;52.182;7.650;2022-09-28T00:52:21;7.00;;;6.30;;
12703;SDS011;6416;52.182;7.650;2022-09-28T00:54:51;6.23;;;5.70;;
12703;SDS011;6416;52.182;7.650;2022-09-28T00:57:18;6.30;;;5.80;;
12703;SDS011;6416;52.182;7.650;2022-09-28T00:59:46;7.57;;;6.87;;
12703;SDS011;6416;52.182;7.650;2022-09-28T01:02:11;6.67;;;6.07;;
12703;SDS011;6416;52.182;7.650;2022-09-28T01:04:37;6.03;;;5.53;;
12703;SDS011;6416;52.182;7.650;2022-09-28T01:07:03;7.03;;;6.33;;
12703;SDS011;6416;52.182;7.650;2022-09-28T01:09:29;6.33;;;5.73;;
12703;SDS011;6416;52.182;7.650;2022-09-28T01:11:55;7.13;;;6.53;;
12703;SDS011;6416;52.182;7.650;2022-09-28T01:14:20;7.23;;;6.53;;
12703;SDS011;6416;52.182;7.650;2022-09-28T01:19:31;7.00;;;6.40;;
12703;SDS011;6416;52.182;7.650;2022-09-28T01:25:06;6.77;;;5.83;;
12703;SDS011;6416;52.182;7.650;2022-09-28T01:30:16;6.83;;;6.23;;
12703;SDS011;6416;52.182;7.650;2022-09-28T01:35:41;6.70;;;6.00;;
12703;SDS011;6416;52.182;7.650;2022-09-28T01:38:20;6.80;;;6.20;;
12703;SDS011;6416;52.182;7.650;2022-09-28T01:40:49;6.77;;;6.17;;
12703;SDS011;6416;52.182;7.650;2022-09-28T01:43:18;6.33;;;5.70;;
12703;SDS011;6416;52.182;7.650;2022-09-28T01:48:29;6.53;;;5.93;;
12703;SDS011;6416;52.182;7.650;2022-09-28T01:50:59;5.90;;;5.30;;
12703;SDS011;6416;52.182;7.650;2022-09-28T01:53:37;6.60;;;5.93;;
12703;SDS011;6416;52.182;7.650;2022-09-28T01:56:10;6.27;;;5.77;;
12703;SDS011;6416;52.182;7.650;2022-09-28T01:59:14;6.43;;;5.83;;
12703;SDS011;6416;52.182;7.650;2022-09-28T02:01:37;5.70;;;5.20;;
12703;SDS011;6416;52.182;7.650;2022-09-28T02:04:31;6.40;;;5.80;;
12703;SDS011;6416;52.182;7.650;2022-09-28T02:07:24;5.93;;;5.43;;
12703;SDS011;6416;52.182;7.650;2022-09-28T02:09:59;5.83;;;5.33;;
12703;SDS011;6416;52.182;7.650;2022-09-28T02:15:19;6.07;;;5.57;;
12703;SDS011;6416;52.182;7.650;2022-09-28T02:17:49;6.20;;;5.60;;
12703;SDS011;6416;52.182;7.650;2022-09-28T02:20:15;6.07;;;5.57;;
12703;SDS011;6416;52.182;7.650;2022-09-28T02:22:48;5.70;;;5.30;;
12703;SDS011;6416;52.182;7.650;2022-09-28T02:28:03;5.83;;;5.33;;
12703;SDS011;6416;52.182;7.650;2022-09-28T02:30:31;6.10;;;5.50;;
12703;SDS011;6416;52.182;7.650;2022-09-28T02:33:03;5.30;;;4.80;;
12703;SDS011;6416;52.182;7.650;2022-09-28T02:35:33;5.20;;;4.80;;
12703;SDS011;6416;52.182;7.650;2022-09-28T02:37:58;6.03;;;5.43;;
12703;SDS011;6416;52.182;7.650;2022-09-28T02:40:25;6.00;;;4.80;;
12703;SDS011;6416;52.182;7.650;2022-09-28T02:43:03;5.30;;;4.90;;
12703;SDS011;6416;52.182;7.650;2022-09-28T02:45:57;5.00;;;4.53;;
12703;SDS011;6416;52.182;7.650;2022-09-28T02:48:30;7.33;;;4.40;;
12703;SDS011;6416;52.182;7.650;2022-09-28T02:54:07;5.30;;;4.90;;
12703;SDS011;6416;52.182;7.650;2022-09-28T02:57:16;5.20;;;4.73;;
12703;SDS011;6416;52.182;7.650;2022-09-28T03:00:12;4.80;;;4.40;;
12703;SDS011;6416;52.182;7.650;2022-09-28T03:05:19;5.73;;;5.27;;
12703;SDS011;6416;52.182;7.650;2022-09-28T03:10:39;5.53;;;5.03;;
12703;SDS011;6416;52.182;7.650;2022-09-28T03:13:25;5.03;;;4.63;;
12703;SDS011;6416;52.182;7.650;2022-09-28T03:16:04;5.90;;;5.03;;
12703;SDS011;6416;52.182;7.650;2022-09-28T03:18:49;4.93;;;4.50;;
12703;SDS011;6416;52.182;7.650;2022-09-28T03:21:15;5.13;;;4.73;;
12703;SDS011;6416;52.182;7.650;2022-09-28T03:23:40;5.07;;;4.67;;
12703;SDS011;6416;52.182;7.650;2022-09-28T03:26:07;5.07;;;4.67;;
12703;SDS011;6416;52.182;7.650;2022-09-28T03:28:34;5.53;;;5.13;;
12703;SDS011;6416;52.182;7.650;2022-09-28T03:31:00;5.33;;;4.93;;
12703;SDS011;6416;52.182;7.650;2022-09-28T03:33:25;5.13;;;4.73;;
12703;SDS011;6416;52.182;7.650;2022-09-28T03:35:51;5.40;;;4.90;;
12703;SDS011;6416;52.182;7.650;2022-09-28T03:38:17;5.13;;;4.70;;
12703;SDS011;6416;52.182;7.650;2022-09-28T03:40:43;5.70;;;5.20;;
12703;SDS011;6416;52.182;7.650;2022-09-28T03:43:16;5.33;;;4.93;;
12703;SDS011;6416;52.182;7.650;2022-09-28T03:45:41;5.80;;;5.30;;
12703;SDS011;6416;52.182;7.650;2022-09-28T03:48:07;5.77;;;5.30;;
12703;SDS011;6416;52.182;7.650;2022-09-28T03:50:32;5.70;;;5.30;;
12703;SDS011;6416;52.182;7.650;2022-09-28T03:53:02;6.10;;;5.53;;
12703;SDS011;6416;52.182;7.650;2022-09-28T03:55:27;5.93;;;5.33;;
12703;SDS011;6416;52.182;7.650;2022-09-28T03:57:53;6.50;;;5.90;;
12703;SDS011;6416;52.182;7.650;2022-09-28T04:00:18;5.90;;;5.40;;
12703;SDS011;6416;52.182;7.650;2022-09-28T04:02:44;6.27;;;5.43;;
12703;SDS011;6416;52.182;7.650;2022-09-28T04:05:09;6.43;;;5.77;;
12703;SDS011;6416;52.182;7.650;2022-09-28T04:07:35;7.17;;;6.43;;
12703;SDS011;6416;52.182;7.650;2022-09-28T04:10:00;6.37;;;5.77;;
12703;SDS011;6416;52.182;7.650;2022-09-28T04:12:26;6.80;;;6.20;;
12703;SDS011;6416;52.182;7.650;2022-09-28T04:14:51;7.97;;;6.40;;
12703;SDS011;6416;52.182;7.650;2022-09-28T04:17:16;7.17;;;6.47;;
12703;SDS011;6416;52.182;7.650;2022-09-28T04:19:42;6.03;;;5.60;;
12703;SDS011;6416;52.182;7.650;2022-09-28T04:22:07;6.70;;;6.10;;
12703;SDS011;6416;52.182;7.650;2022-09-28T04:24:33;6.60;;;5.93;;
12703;SDS011;6416;52.182;7.650;2022-09-28T04:26:58;6.30;;;5.80;;
12703;SDS011;6416;52.182;7.650;2022-09-28T04:29:24;6.20;;;5.70;;
12703;SDS011;6416;52.182;7.650;2022-09-28T04:31:50;7.60;;;6.00;;
12703;SDS011;6416;52.182;7.650;2022-09-28T04:34:17;5.83;;;5.33;;
12703;SDS011;6416;52.182;7.650;2022-09-28T04:36:47;7.22;;;6.63;;
12703;SDS011;6416;52.182;7.650;2022-09-28T04:39:13;6.37;;;5.87;;
12703;SDS011;6416;52.182;7.650;2022-09-28T04:41:40;6.07;;;5.50;;
12703;SDS011;6416;52.182;7.650;2022-09-28T04:44:06;6.27;;;5.67;;
12703;SDS011;6416;52.182;7.650;2022-09-28T04:46:32;6.13;;;5.53;;
12703;SDS011;6416;52.182;7.650;2022-09-28T04:48:58;6.07;;;5.57;;
12703;SDS011;6416;52.182;7.650;2022-09-28T04:51:24;6.33;;;5.73;;
12703;SDS011;6416;52.182;7.650;2022-09-28T04:53:49;6.40;;;5.80;;
12703;SDS011;6416;52.182;7.650;2022-09-28T04:56:16;6.90;;;5.90;;
12703;SDS011;6416;52.182;7.650;2022-09-28T04:58:42;6.73;;;6.13;;
12703;SDS011;6416;52.182;7.650;2022-09-28T05:01:10;6.50;;;6.00;;
12703;SDS011;6416;52.182;7.650;2022-09-28T05:03:37;7.03;;;6.43;;
12703;SDS011;6416;52.182;7.650;2022-09-28T05:06:02;6.97;;;6.27;;
12703;SDS011;6416;52.182;7.650;2022-09-28T05:08:28;7.20;;;6.60;;
12703;SDS011;6416;52.182;7.650;2022-09-28T05:10:58;7.43;;;6.60;;
12703;SDS011;6416;52.182;7.650;2022-09-28T05:13:25;6.83;;;6.13;;
12703;SDS011;6416;52.182;7.650;2022-09-28T05:15:51;6.50;;;5.90;;
12703;SDS011;6416;52.182;7.650;2022-09-28T05:18:18;6.93;;;6.30;;
12703;SDS011;6416;52.182;7.650;2022-09-28T05:20:44;6.50;;;5.83;;
12703;SDS011;6416;52.182;7.650;2022-09-28T05:23:10;6.77;;;6.17;;
12703;SDS011;6416;52.182;7.650;2022-09-28T05:25:37;6.83;;;6.13;;
12703;SDS011;6416;52.182;7.650;2022-09-28T05:28:03;8.40;;;6.67;;
12703;SDS011;6416;52.182;7.650;2022-09-28T05:30:29;7.13;;;6.43;;
12703;SDS011;6416;52.182;7.650;2022-09-28T05:32:55;7.30;;;6.63;;
12703;SDS011;6416;52.182;7.650;2022-09-28T05:35:20;7.03;;;6.43;;
12703;SDS011;6416;52.182;7.650;2022-09-28T05:37:46;6.57;;;5.97;;
12703;SDS011;6416;52.182;7.650;2022-09-28T05:40:12;6.97;;;6.37;;
12703;SDS011;6416;52.182;7.650;2022-09-28T05:42:38;7.57;;;6.87;;
12703;SDS011;6416;52.182;7.650;2022-09-28T05:45:04;7.60;;;7.00;;
12703;SDS011;6416;52.182;7.650;2022-09-28T05:47:29;7.10;;;6.40;;
12703;SDS011;6416;52.182;7.650;2022-09-28T05:49:55;7.63;;;6.93;;
12703;SDS011;6416;52.182;7.650;2022-09-28T05:52:21;7.17;;;6.57;;
12703;SDS011;6416;52.182;7.650;2022-09-28T05:54:46;7.33;;;6.73;;
12703;SDS011;6416;52.182;7.650;2022-09-28T05:57:12;7.00;;;6.40;;
12703;SDS011;6416;52.182;7.650;2022-09-28T05:59:38;8.67;;;6.77;;
12703;SDS011;6416;52.182;7.650;2022-09-28T06:02:04;8.10;;;7.30;;
12703;SDS011;6416;52.182;7.650;2022-09-28T06:04:31;7.83;;;7.17;;
12703;SDS011;6416;52.182;7.650;2022-09-28T06:06:57;7.60;;;6.93;;
12703;SDS011;6416;52.182;7.650;2022-09-28T06:09:22;7.53;;;6.77;;
12703;SDS011;6416;52.182;7.650;2022-09-28T06:11:48;8.50;;;7.77;;
12703;SDS011;6416;52.182;7.650;2022-09-28T06:14:14;8.67;;;7.77;;
12703;SDS011;6416;52.182;7.650;2022-09-28T06:16:40;7.87;;;7.17;;
12703;SDS011;6416;52.182;7.650;2022-09-28T06:19:09;8.80;;;7.93;;
12703;SDS011;6416;52.182;7.650;2022-09-28T06:21:35;8.83;;;8.00;;
12703;SDS011;6416;52.182;7.650;2022-09-28T06:24:01;8.43;;;7.63;;
12703;SDS011;6416;52.182;7.650;2022-09-28T06:26:27;8.73;;;7.90;;
12703;SDS011;6416;52.182;7.650;2022-09-28T06:28:53;8.20;;;7.50;;
12703;SDS011;6416;52.182;7.650;2022-09-28T06:31:18;8.37;;;7.63;;
12703;SDS011;6416;52.182;7.650;2022-09-28T06:33:44;9.07;;;8.23;;
12703;SDS011;6416;52.182;7.650;2022-09-28T06:36:11;8.97;;;8.17;;
12703;SDS011;6416;52.182;7.650;2022-09-28T06:38:37;8.30;;;7.60;;
12703;SDS011;6416;52.182;7.650;2022-09-28T06:41:02;8.23;;;7.43;;
12703;SDS011;6416;52.182;7.650;2022-09-28T06:43:28;8.87;;;7.97;;
12703;SDS011;6416;52.182;7.650;2022-09-28T06:45:53;9.23;;;8.33;;
12703;SDS011;6416;52.182;7.650;2022-09-28T06:48:19;8.30;;;7.60;;
12703;SDS011;6416;52.182;7.650;2022-09-28T06:50:44;8.83;;;8.00;;
12703;SDS011;6416;52.182;7.650;2022-09-28T06:53:10;9.30;;;8.40;;
12703;SDS011;6416;52.182;7.650;2022-09-28T06:55:38;8.67;;;7.90;;
12703;SDS011;6416;52.182;7.650;2022-09-28T06:58:12;9.73;;;8.77;;
12703;SDS011;6416;52.182;7.650;2022-09-28T07:00:40;8.30;;;7.60;;
12703;SDS011;6416;52.182;7.650;2022-09-28T07:03:15;8.77;;;7.97;;
12703;SDS011;6416;52.182;7.650;2022-09-28T07:05:44;10.90;;;8.57;;
12703;SDS011;6416;52.182;7.650;2022-09-28T07:08:12;9.67;;;8.70;;
12703;SDS011;6416;52.182;7.650;2022-09-28T07:10:42;9.23;;;8.37;;
12703;SDS011;6416;52.182;7.650;2022-09-28T07:13:12;9.27;;;8.23;;
12703;SDS011;6416;52.182;7.650;2022-09-28T07:15:39;9.20;;;8.17;;
12703;SDS011;6416;52.182;7.650;2022-09-28T07:18:05;8.53;;;7.83;;
12703;SDS011;6416;52.182;7.650;2022-09-28T07:20:34;8.57;;;7.77;;
12703;SDS011;6416;52.182;7.650;2022-09-28T07:23:01;8.93;;;8.13;;
12703;SDS011;6416;52.182;7.650;2022-09-28T07:25:29;9.13;;;8.23;;
12703;SDS011;6416;52.182;7.650;2022-09-28T07:27:56;8.43;;;7.63;;
12703;SDS011;6416;52.182;7.650;2022-09-28T07:30:22;9.13;;;8.33;;
12703;SDS011;6416;52.182;7.650;2022-09-28T07:32:48;8.97;;;8.17;;
12703;SDS011;6416;52.182;7.650;2022-09-28T07:35:14;9.37;;;8.47;;
12703;SDS011;6416;52.182;7.650;2022-09-28T07:37:39;9.83;;;8.90;;
12703;SDS011;6416;52.182;7.650;2022-09-28T07:40:06;8.77;;;8.03;;
12703;SDS011;6416;52.182;7.650;2022-09-28T07:42:32;9.03;;;8.23;;
12703;SDS011;6416;52.182;7.650;2022-09-28T07:44:57;9.73;;;8.80;;
12703;SDS011;6416;52.182;7.650;2022-09-28T07:47:24;9.40;;;8.33;;
12703;SDS011;6416;52.182;7.650;2022-09-28T07:49:51;8.67;;;7.87;;
12703;SDS011;6416;52.182;7.650;2022-09-28T07:52:17;8.53;;;7.63;;
12703;SDS011;6416;52.182;7.650;2022-09-28T07:54:43;9.07;;;8.27;;
12703;SDS011;6416;52.182;7.650;2022-09-28T07:57:08;8.83;;;8.07;;
12703;SDS011;6416;52.182;7.650;2022-09-28T07:59:34;9.00;;;8.10;;
12703;SDS011;6416;52.182;7.650;2022-09-28T08:01:59;8.30;;;7.57;;
12703;SDS011;6416;52.182;7.650;2022-09-28T08:04:24;9.50;;;7.80;;
12703;SDS011;6416;52.182;7.650;2022-09-28T08:06:50;8.33;;;7.53;;
12703;SDS011;6416;52.182;7.650;2022-09-28T08:09:15;9.10;;;8.30;;
12703;SDS011;6416;52.182;7.650;2022-09-28T08:11:41;8.97;;;8.10;;
12703;SDS011;6416;52.182;7.650;2022-09-28T08:14:06;8.57;;;7.77;;
12703;SDS011;6416;52.182;7.650;2022-09-28T08:16:32;9.40;;;8.50;;
12703;SDS011;6416;52.182;7.650;2022-09-28T08:18:57;8.60;;;7.80;;
12703;SDS011;6416;52.182;7.650;2022-09-28T08:21:23;8.00;;;7.27;;
12703;SDS011;6416;52.182;7.650;2022-09-28T08:23:48;9.87;;;8.17;;
12703;SDS011;6416;52.182;7.650;2022-09-28T08:26:14;7.90;;;7.13;;
12703;SDS011;6416;52.182;7.650;2022-09-28T08:28:40;8.27;;;7.57;;
12703;SDS011;6416;52.182;7.650;2022-09-28T08:31:07;8.10;;;7.40;;
12703;SDS011;6416;52.182;7.650;2022-09-28T08:33:33;8.63;;;7.83;;
12703;SDS011;6416;52.182;7.650;2022-09-28T08:37:37;8.93;;;7.20;;
12703;SDS011;6416;52.182;7.650;2022-09-28T08:40:03;7.53;;;6.83;;
12703;SDS011;6416;52.182;7.650;2022-09-28T08:42:37;8.13;;;6.45;;
12703;SDS011;6416;52.182;7.650;2022-09-28T08:45:07;6.90;;;6.30;;
12703;SDS011;6416;52.182;7.650;2022-09-28T08:48:00;6.53;;;5.95;;
12703;SDS011;6416;52.182;7.650;2022-09-28T08:50:25;6.68;;;5.50;;
12703;SDS011;6416;52.182;7.650;2022-09-28T08:52:56;6.10;;;5.50;;
12703;SDS011;6416;52.182;7.650;2022-09-28T08:55:35;6.47;;;5.65;;
12703;SDS011;6416;52.182;7.650;2022-09-28T09:00:38;5.95;;;5.45;;
12703;SDS011;6416;52.182;7.650;2022-09-28T09:03:12;6.03;;;5.45;;
12703;SDS011;6416;52.182;7.650;2022-09-28T09:05:47;6.20;;;5.60;;
12703;SDS011;6416;52.182;7.650;2022-09-28T09:28:03;5.40;;;4.90;;
12703;SDS011;6416;52.182;7.650;2022-09-28T09:31:03;5.32;;;4.93;;
12703;SDS011;6416;52.182;7.650;2022-09-28T09:33:45;6.70;;;4.97;;
12703;SDS011;6416;52.182;7.650;2022-09-28T09:36:20;5.13;;;4.63;;
12703;SDS011;6416;52.182;7.650;2022-09-28T09:38:57;5.68;;;5.15;;
12703;SDS011;6416;52.182;7.650;2022-09-28T09:49:38;4.68;;;4.28;;
12703;SDS011;6416;52.182;7.650;2022-09-28T09:52:23;4.35;;;3.95;;
12703;SDS011;6416;52.182;7.650;2022-09-28T09:54:57;4.00;;;3.60;;
12703;SDS011;6416;52.182;7.650;2022-09-28T09:57:33;4.38;;;3.67;;
12703;SDS011;6416;52.182;7.650;2022-09-28T10:00:09;4.50;;;3.60;;
12703;SDS011;6416;52.182;7.650;2022-09-28T10:02:37;4.80;;;4.30;;
12703;SDS011;6416;52.182;7.650;2022-09-28T10:05:06;4.05;;;3.72;;
12703;SDS011;6416;52.182;7.650;2022-09-28T10:10:26;3.90;;;3.30;;
12703;SDS011;6416;52.182;7.650;2022-09-28T10:13:00;3.38;;;3.08;;
12703;SDS011;6416;52.182;7.650;2022-09-28T10:15:32;3.65;;;3.35;;
12703;SDS011;6416;52.182;7.650;2022-09-28T10:18:04;3.55;;;2.85;;
12703;SDS011;6416;52.182;7.650;2022-09-28T10:20:36;3.15;;;2.85;;
12703;SDS011;6416;52.182;7.650;2022-09-28T10:23:04;3.05;;;2.65;;
12703;SDS011;6416;52.182;7.650;2022-09-28T10:25:31;2.88;;;2.67;;
12703;SDS011;6416;52.182;7.650;2022-09-28T10:28:00;4.13;;;3.28;;
12703;SDS011;6416;52.182;7.650;2022-09-28T10:30:28;3.42;;;3.13;;
12703;SDS011;6416;52.182;7.650;2022-09-28T10:32:58;3.28;;;2.95;;
12703;SDS011;6416;52.182;7.650;2022-09-28T10:35:24;4.55;;;4.15;;
12703;SDS011;6416;52.182;7.650;2022-09-28T10:38:02;3.22;;;2.83;;
12703;SDS011;6416;52.182;7.650;2022-09-28T10:40:43;3.03;;;2.70;;
12703;SDS011;6416;52.182;7.650;2022-09-28T10:45:58;3.42;;;2.70;;
12703;SDS011;6416;52.182;7.650;2022-09-28T10:51:46;2.95;;;2.72;;
12703;SDS011;6416;52.182;7.650;2022-09-28T10:54:17;3.33;;;2.95;;
12703;SDS011;6416;52.182;7.650;2022-09-28T10:56:45;2.95;;;2.65;;
12703;SDS011;6416;52.182;7.650;2022-09-28T10:59:22;3.15;;;2.85;;
12703;SDS011;6416;52.182;7.650;2022-09-28T11:01:47;3.53;;;3.22;;
12703;SDS011;6416;52.182;7.650;2022-09-28T11:04:28;4.32;;;3.92;;
12703;SDS011;6416;52.182;7.650;2022-09-28T11:06:57;3.70;;;3.40;;
12703;SDS011;6416;52.182;7.650;2022-09-28T11:09:26;3.28;;;2.75;;
12703;SDS011;6416;52.182;7.650;2022-09-28T11:11:52;3.30;;;3.00;;
12703;SDS011;6416;52.182;7.650;2022-09-28T11:14:39;2.97;;;2.70;;
12703;SDS011;6416;52.182;7.650;2022-09-28T11:19:49;2.72;;;2.50;;
12703;SDS011;6416;52.182;7.650;2022-09-28T11:24:49;3.42;;;2.88;;
12703;SDS011;6416;52.182;7.650;2022-09-28T11:27:18;4.30;;;2.60;;
12703;SDS011;6416;52.182;7.650;2022-09-28T11:29:53;3.33;;;2.97;;
12703;SDS011;6416;52.182;7.650;2022-09-28T11:32:28;2.97;;;2.20;;
12703;SDS011;6416;52.182;7.650;2022-09-28T11:35:03;2.10;;;1.85;;
12703;SDS011;6416;52.182;7.650;2022-09-28T11:40:28;2.60;;;1.98;;
12703;SDS011;6416;52.182;7.650;2022-09-28T11:49:25;2.45;;;2.25;;
12703;SDS011;6416;52.182;7.650;2022-09-28T11:51:58;3.50;;;2.50;;
12703;SDS011;6416;52.182;7.650;2022-09-28T11:54:51;2.28;;;2.10;;
12703;SDS011;6416;52.182;7.650;2022-09-28T11:57:23;2.95;;;2.15;;
12703;SDS011;6416;52.182;7.650;2022-09-28T12:02:22;1.55;;;1.45;;
12703;SDS011;6416;52.182;7.650;2022-09-28T12:05:05;1.63;;;1.50;;
12703;SDS011;6416;52.182;7.650;2022-09-28T12:07:54;2.28;;;1.67;;
12703;SDS011;6416;52.182;7.650;2022-09-28T12:10:25;2.60;;;1.80;;
12703;SDS011;6416;52.182;7.650;2022-09-28T12:13:10;2.20;;;1.73;;
12703;SDS011;6416;52.182;7.650;2022-09-28T12:15:42;2.25;;;1.85;;
12703;SDS011;6416;52.182;7.650;2022-09-28T12:18:13;2.17;;;1.40;;
12703;SDS011;6416;52.182;7.650;2022-09-28T12:20:45;1.80;;;1.60;;
12703;SDS011;6416;52.182;7.650;2022-09-28T12:23:17;1.52;;;1.40;;
12703;SDS011;6416;52.182;7.650;2022-09-28T12:25:44;3.45;;;1.80;;
12703;SDS011;6416;52.182;7.650;2022-09-28T12:30:50;1.85;;;1.10;;
12703;SDS011;6416;52.182;7.650;2022-09-28T12:33:18;0.70;;;0.63;;
12703;SDS011;6416;52.182;7.650;2022-09-28T12:36:21;0.80;;;0.80;;
12703;SDS011;6416;52.182;7.650;2022-09-28T12:56:03;1.23;;;1.13;;
12703;SDS011;6416;52.182;7.650;2022-09-28T13:03:54;1.60;;;1.50;;
12703;SDS011;6416;52.182;7.650;2022-09-28T13:09:25;1.63;;;1.27;;
12703;SDS011;6416;52.182;7.650;2022-09-28T13:12:03;2.20;;;1.17;;
12703;SDS011;6416;52.182;7.650;2022-09-28T13:20:37;1.30;;;1.20;;
12703;SDS011;6416;52.182;7.650;2022-09-28T13:23:22;1.08;;;0.98;;
12703;SDS011;6416;52.182;7.650;2022-09-28T13:26:10;1.80;;;1.25;;
12703;SDS011;6416;52.182;7.650;2022-09-28T13:28:45;1.65;;;1.10;;
12703;SDS011;6416;52.182;7.650;2022-09-28T13:31:16;1.67;;;1.00;;
12703;SDS011;6416;52.182;7.650;2022-09-28T13:33:48;1.15;;;0.98;;
12703;SDS011;6416;52.182;7.650;2022-09-28T13:38:55;2.00;;;1.10;;
12703;SDS011;6416;52.182;7.650;2022-09-28T13:41:25;2.25;;;1.30;;
12703;SDS011;6416;52.182;7.650;2022-09-28T13:50:02;1.10;;;1.00;;
12703;SDS011;6416;52.182;7.650;2022-09-28T13:53:03;1.83;;;1.10;;
12703;SDS011;6416;52.182;7.650;2022-09-28T13:56:16;1.77;;;1.20;;
12703;SDS011;6416;52.182;7.650;2022-09-28T13:58:57;1.08;;;1.00;;
12703;SDS011;6416;52.182;7.650;2022-09-28T14:05:02;0.93;;;0.93;;
12703;SDS011;6416;52.182;7.650;2022-09-28T14:13:12;0.93;;;0.93;;
12703;SDS011;6416;52.182;7.650;2022-09-28T14:32:39;1.05;;;1.00;;
12703;SDS011;6416;52.182;7.650;2022-09-28T14:35:07;1.58;;;1.00;;
12703;SDS011;6416;52.182;7.650;2022-09-28T14:37:49;1.60;;;1.10;;
12703;SDS011;6416;52.182;7.650;2022-09-28T14:40:26;1.02;;;1.00;;
12703;SDS011;6416;52.182;7.650;2022-09-28T14:45:43;1.10;;;1.00;;
12703;SDS011;6416;52.182;7.650;2022-09-28T14:53:49;1.30;;;1.20;;
12703;SDS011;6416;52.182;7.650;2022-09-28T14:56:23;1.15;;;1.02;;
12703;SDS011;6416;52.182;7.650;2022-09-28T14:58:56;1.20;;;1.10;;
12703;SDS011;6416;52.182;7.650;2022-09-28T15:01:25;1.27;;;1.17;;
12703;SDS011;6416;52.182;7.650;2022-09-28T15:03:53;3.38;;;1.20;;
12703;SDS011;6416;52.182;7.650;2022-09-28T15:06:23;1.20;;;1.10;;
12703;SDS011;6416;52.182;7.650;2022-09-28T15:08:49;1.15;;;1.10;;
12703;SDS011;6416;52.182;7.650;2022-09-28T15:11:21;2.42;;;1.00;;
12703;SDS011;6416;52.182;7.650;2022-09-28T15:13:49;2.33;;;0.98;;
12703;SDS011;6416;52.182;7.650;2022-09-28T15:16:15;0.85;;;0.85;;
12703;SDS011;6416;52.182;7.650;2022-09-28T15:18:46;0.80;;;0.80;;
12703;SDS011;6416;52.182;7.650;2022-09-28T15:21:34;1.10;;;1.00;;
12703;SDS011;6416;52.182;7.650;2022-09-28T15:24:16;0.88;;;0.88;;
12703;SDS011;6416;52.182;7.650;2022-09-28T15:26:51;1.33;;;1.00;;
12703;SDS011;6416;52.182;7.650;2022-09-28T15:29:17;1.83;;;0.90;;
12703;SDS011;6416;52.182;7.650;2022-09-28T15:31:44;0.90;;;0.90;;
12703;SDS011;6416;52.182;7.650;2022-09-28T15:34:29;1.70;;;1.15;;
12703;SDS011;6416;52.182;7.650;2022-09-28T15:36:56;1.25;;;0.98;;
12703;SDS011;6416;52.182;7.650;2022-09-28T15:39:28;1.10;;;1.00;;
12703;SDS011;6416;52.182;7.650;2022-09-28T15:41:56;1.00;;;1.00;;
12703;SDS011;6416;52.182;7.650;2022-09-28T15:44:29;1.10;;;1.00;;
12703;SDS011;6416;52.182;7.650;2022-09-28T15:47:03;0.90;;;0.90;;
12703;SDS011;6416;52.182;7.650;2022-09-28T15:49:35;1.38;;;1.10;;
12703;SDS011;6416;52.182;7.650;2022-09-28T15:52:04;1.75;;;1.20;;
12703;SDS011;6416;52.182;7.650;2022-09-28T15:54:40;1.17;;;1.08;;
12703;SDS011;6416;52.182;7.650;2022-09-28T15:57:09;1.30;;;1.20;;
12703;SDS011;6416;52.182;7.650;2022-09-28T15:59:53;1.35;;;1.20;;
12703;SDS011;6416;52.182;7.650;2022-09-28T16:02:19;1.50;;;1.20;;
12703;SDS011;6416;52.182;7.650;2022-09-28T16:04:52;1.20;;;1.10;;
12703;SDS011;6416;52.182;7.650;2022-09-28T16:07:23;1.00;;;1.00;;
12703;SDS011;6416;52.182;7.650;2022-09-28T16:15:02;2.25;;;1.10;;
12703;SDS011;6416;52.182;7.650;2022-09-28T16:17:31;1.38;;;1.13;;
12703;SDS011;6416;52.182;7.650;2022-09-28T16:20:00;0.90;;;0.90;;
12703;SDS011;6416;52.182;7.650;2022-09-28T16:22:41;0.98;;;0.90;;
12703;SDS011;6416;52.182;7.650;2022-09-28T16:25:13;0.88;;;0.88;;
12703;SDS011;6416;52.182;7.650;2022-09-28T16:27:42;1.05;;;0.95;;
12703;SDS011;6416;52.182;7.650;2022-09-28T16:32:53;1.98;;;1.00;;
12703;SDS011;6416;52.182;7.650;2022-09-28T16:35:30;2.78;;;1.10;;
12703;SDS011;6416;52.182;7.650;2022-09-28T16:38:13;1.17;;;0.95;;
12703;SDS011;6416;52.182;7.650;2022-09-28T16:40:40;2.72;;;1.20;;
12703;SDS011;6416;52.182;7.650;2022-09-28T16:43:17;0.73;;;0.73;;
12703;SDS011;6416;52.182;7.650;2022-09-28T16:45:45;2.10;;;1.05;;
12703;SDS011;6416;52.182;7.650;2022-09-28T16:48:14;1.00;;;0.90;;
12703;SDS011;6416;52.182;7.650;2022-09-28T16:50:40;2.95;;;1.15;;
12703;SDS011;6416;52.182;7.650;2022-09-28T16:53:10;1.00;;;0.80;;
12703;SDS011;6416;52.182;7.650;2022-09-28T16:55:38;1.02;;;1.02;;
12703;SDS011;6416;52.182;7.650;2022-09-28T16:58:04;1.20;;;1.00;;
12703;SDS011;6416;52.182;7.650;2022-09-28T17:00:30;1.23;;;1.13;;
12703;SDS011;6416;52.182;7.650;2022-09-28T17:02:55;2.08;;;1.25;;
12703;SDS011;6416;52.182;7.650;2022-09-28T17:05:21;1.30;;;1.20;;
12703;SDS011;6416;52.182;7.650;2022-09-28T17:08:08;1.73;;;1.30;;
12703;SDS011;6416;52.182;7.650;2022-09-28T17:10:38;1.20;;;1.10;;
12703;SDS011;6416;52.182;7.650;2022-09-28T17:13:07;2.27;;;1.77;;
12703;SDS011;6416;52.182;7.650;2022-09-28T17:15:32;1.40;;;1.20;;
12703;SDS011;6416;52.182;7.650;2022-09-28T17:17:58;1.70;;;1.50;;
12703;SDS011;6416;52.182;7.650;2022-09-28T17:20:27;1.40;;;1.30;;
12703;SDS011;6416;52.182;7.650;2022-09-28T17:22:54;2.90;;;1.20;;
12703;SDS011;6416;52.182;7.650;2022-09-28T17:25:20;1.53;;;1.30;;
12703;SDS011;6416;52.182;7.650;2022-09-28T17:27:48;1.40;;;1.30;;
12703;SDS011;6416;52.182;7.650;2022-09-28T17:30:14;4.70;;;2.37;;
12703;SDS011;6416;52.182;7.650;2022-09-28T17:32:41;2.67;;;1.70;;
12703;SDS011;6416;52.182;7.650;2022-09-28T17:35:06;2.23;;;1.57;;
12703;SDS011;6416;52.182;7.650;2022-09-28T17:37:32;1.97;;;1.60;;
12703;SDS011;6416;52.182;7.650;2022-09-28T17:39:57;2.37;;;1.50;;
12703;SDS011;6416;52.182;7.650;2022-09-28T17:42:23;1.77;;;1.63;;
12703;SDS011;6416;52.182;7.650;2022-09-28T17:44:48;2.60;;;1.20;;
12703;SDS011;6416;52.182;7.650;2022-09-28T17:47:14;1.13;;;1.10;;
12703;SDS011;6416;52.182;7.650;2022-09-28T17:49:39;1.47;;;1.37;;
12703;SDS011;6416;52.182;7.650;2022-09-28T17:52:05;1.53;;;1.43;;
12703;SDS011;6416;52.182;7.650;2022-09-28T17:54:30;1.73;;;1.63;;
12703;SDS011;6416;52.182;7.650;2022-09-28T17:56:55;3.37;;;1.60;;
12703;SDS011;6416;52.182;7.650;2022-09-28T17:59:21;1.70;;;1.60;;
12703;SDS011;6416;52.182;7.650;2022-09-28T18:01:46;2.13;;;1.40;;
12703;SDS011;6416;52.182;7.650;2022-09-28T18:04:12;1.40;;;1.30;;
12703;SDS011;6416;52.182;7.650;2022-09-28T18:06:42;1.67;;;1.50;;
12703;SDS011;6416;52.182;7.650;2022-09-28T18:09:10;2.97;;;1.80;;
12703;SDS011;6416;52.182;7.650;2022-09-28T18:11:38;2.13;;;1.93;;
12703;SDS011;6416;52.182;7.650;2022-09-28T18:14:07;1.97;;;1.87;;
12703;SDS011;6416;52.182;7.650;2022-09-28T18:16:32;2.37;;;1.93;;